Time;durP1;ratioP1;P1;durP2;ratioP2;P2;SDS_P1;SDS_P2;PMS_P1;PMS_P2;Temp;Humidity;BMP_temperature;BMP_pressure;BME280_temperature;BME280_humidity;BME280_pressure;Samples;Min_cycle;Max_cycle;Signal;HPM_P1;HPM_P2
2023/09/04 00:00:39;;;;;;;4.40;2.67;;;18.80;91.70;;;;;;5071692;28;20572;-77
2023/09/04 00:03:04;;;;;;;4.53;2.70;;;18.80;91.70;;;;;;5071759;28;20029;-76
2023/09/04 00:05:33;;;;;;;4.78;2.75;;;18.80;91.70;;;;;;5071100;28;20045;-77
2023/09/04 00:07:59;;;;;;;4.97;2.60;;;18.80;91.70;;;;;;5071319;28;20104;-77
2023/09/04 00:10:25;;;;;;;4.60;2.63;;;18.80;91.70;;;;;;5071435;28;20052;-77
2023/09/04 00:12:50;;;;;;;4.80;2.63;;;18.80;91.70;;;;;;5070245;28;20393;-76
2023/09/04 00:15:16;;;;;;;4.43;2.50;;;18.80;91.70;;;;;;5069774;28;20074;-76
2023/09/04 00:17:41;;;;;;;4.80;2.42;;;18.80;91.70;;;;;;5071260;28;20098;-77
2023/09/04 00:20:08;;;;;;;4.03;2.40;;;18.80;91.60;;;;;;5071292;28;20432;-77
2023/09/04 00:22:33;;;;;;;4.20;2.60;;;18.80;91.60;;;;;;5071247;28;20025;-78
2023/09/04 00:24:59;;;;;;;5.95;2.70;;;18.90;91.60;;;;;;5071078;28;20527;-76
2023/09/04 00:27:26;;;;;;;3.70;2.30;;;18.80;91.50;;;;;;5069874;28;20032;-76
2023/09/04 00:29:51;;;;;;;4.78;2.47;;;18.80;91.50;;;;;;5071331;28;20024;-76
2023/09/04 00:32:17;;;;;;;4.47;2.40;;;18.90;91.60;;;;;;5071289;28;20370;-76
2023/09/04 00:34:43;;;;;;;4.22;2.50;;;18.80;91.60;;;;;;5070911;28;20473;-77
2023/09/04 00:37:09;;;;;;;4.88;2.60;;;18.80;91.60;;;;;;5070755;28;20028;-76
2023/09/04 00:39:36;;;;;;;4.65;2.58;;;18.80;91.60;;;;;;5074757;28;20112;-77
2023/09/04 00:42:01;;;;;;;3.95;2.38;;;18.80;91.70;;;;;;5073612;28;20056;-77
2023/09/04 00:44:27;;;;;;;4.07;2.35;;;18.70;91.60;;;;;;5073949;28;20500;-77
2023/09/04 00:46:53;;;;;;;3.85;2.22;;;18.80;91.70;;;;;;5073313;28;20230;-76
2023/09/04 00:49:19;;;;;;;3.95;2.40;;;18.80;91.70;;;;;;5074681;28;20016;-76
2023/09/04 00:51:45;;;;;;;4.43;2.38;;;18.80;91.70;;;;;;5074803;28;20099;-76
2023/09/04 00:54:12;;;;;;;4.78;2.60;;;18.80;91.70;;;;;;5073196;28;20541;-76
2023/09/04 00:56:38;;;;;;;4.53;2.55;;;18.80;91.70;;;;;;5073227;28;20146;-76
2023/09/04 00:59:04;;;;;;;4.20;2.50;;;18.70;91.70;;;;;;5074375;28;20455;-76
2023/09/04 01:01:30;;;;;;;4.38;2.45;;;18.80;91.70;;;;;;5073129;28;20111;-76
2023/09/04 01:03:56;;;;;;;4.47;2.45;;;18.80;91.80;;;;;;5072903;28;20024;-76
2023/09/04 01:06:21;;;;;;;4.07;2.30;;;18.80;91.80;;;;;;5073201;28;20496;-76
2023/09/04 01:08:47;;;;;;;4.72;2.70;;;18.80;91.80;;;;;;5074212;28;20485;-76
2023/09/04 01:11:40;;;;;;;3.90;2.30;;;18.80;91.80;;;;;;5074262;28;20021;-77
2023/09/04 01:14:11;;;;;;;3.92;2.42;;;18.70;91.70;;;;;;5069542;28;20029;-77
2023/09/04 01:16:39;;;;;;;4.13;2.30;;;18.70;91.70;;;;;;5074085;28;20028;-77
2023/09/04 01:19:05;;;;;;;4.15;2.25;;;18.80;91.70;;;;;;5072832;28;20404;-76
2023/09/04 01:21:35;;;;;;;4.30;2.50;;;18.80;91.70;;;;;;5074088;28;20036;-76
2023/09/04 01:24:01;;;;;;;4.55;2.67;;;18.90;91.60;;;;;;5073836;28;20048;-76
2023/09/04 01:26:45;;;;;;;3.92;2.50;;;18.80;91.60;;;;;;5072792;28;20075;-76
2023/09/04 01:29:45;;;;;;;3.95;2.28;;;18.80;91.60;;;;;;5072661;28;20417;-76
2023/09/04 01:32:17;;;;;;;4.63;2.60;;;18.80;91.60;;;;;;5064537;28;20033;-76
2023/09/04 01:34:46;;;;;;;4.18;2.53;;;18.80;91.60;;;;;;5072339;28;20036;-76
2023/09/04 01:37:12;;;;;;;3.90;2.50;;;18.80;91.60;;;;;;5073695;28;20078;-77
2023/09/04 01:39:38;;;;;;;3.92;2.20;;;18.80;91.60;;;;;;5073562;28;20029;-78
2023/09/04 01:42:04;;;;;;;3.95;2.35;;;18.70;91.60;;;;;;5072495;28;20024;-77
2023/09/04 01:44:29;;;;;;;4.22;2.35;;;18.80;91.70;;;;;;5073273;28;20547;-76
2023/09/04 01:46:55;;;;;;;3.88;2.30;;;18.80;91.70;;;;;;5072338;28;20489;-76
2023/09/04 01:49:21;;;;;;;4.60;2.60;;;18.80;91.70;;;;;;5072808;28;20423;-76
2023/09/04 01:51:46;;;;;;;4.10;2.40;;;18.80;91.70;;;;;;5072326;28;20028;-76
2023/09/04 01:54:12;;;;;;;3.75;2.30;;;18.80;91.80;;;;;;5073323;28;20474;-76
2023/09/04 01:56:37;;;;;;;4.28;2.50;;;18.70;91.70;;;;;;5072117;28;20108;-76
2023/09/04 01:59:03;;;;;;;4.20;2.40;;;18.70;91.70;;;;;;5072049;28;20039;-77
2023/09/04 02:01:29;;;;;;;4.22;2.47;;;18.70;91.80;;;;;;5073258;28;20029;-75
2023/09/04 02:03:56;;;;;;;3.97;2.20;;;18.70;91.70;;;;;;5071660;28;20020;-76
2023/09/04 02:06:28;;;;;;;5.00;2.80;;;18.70;91.70;;;;;;5073215;28;20496;-77
2023/09/04 02:08:53;;;;;;;4.05;2.28;;;18.70;91.80;;;;;;5073109;28;20028;-78
2023/09/04 02:11:19;;;;;;;3.78;2.20;;;18.70;91.80;;;;;;5071840;28;20021;-76
2023/09/04 02:13:45;;;;;;;4.55;2.63;;;18.70;91.80;;;;;;5072880;28;20481;-76
2023/09/04 02:16:11;;;;;;;4.55;2.55;;;18.80;91.80;;;;;;5071808;28;20119;-76
2023/09/04 02:18:38;;;;;;;3.65;2.25;;;18.80;91.70;;;;;;5071612;28;20066;-76
2023/09/04 02:21:04;;;;;;;4.13;2.30;;;18.70;91.70;;;;;;5071695;28;20119;-77
2023/09/04 02:23:29;;;;;;;4.53;2.55;;;18.80;91.70;;;;;;5072666;28;20063;-76
2023/09/04 02:25:55;;;;;;;3.92;2.38;;;18.80;91.60;;;;;;5072892;28;20036;-76
2023/09/04 02:28:20;;;;;;;4.72;2.47;;;18.80;91.60;;;;;;5072604;28;20507;-77
2023/09/04 02:30:46;;;;;;;4.57;2.67;;;18.80;91.60;;;;;;5071599;28;20059;-75
2023/09/04 02:33:11;;;;;;;4.40;2.53;;;18.80;91.60;;;;;;5072596;28;20035;-77
2023/09/04 02:35:37;;;;;;;3.85;2.28;;;18.80;91.60;;;;;;5072389;28;20096;-78
2023/09/04 02:38:02;;;;;;;3.97;2.13;;;18.80;91.60;;;;;;5072630;28;20047;-77
2023/09/04 02:40:28;;;;;;;3.78;2.17;;;18.80;91.60;;;;;;5071222;28;20053;-77
2023/09/04 02:42:54;;;;;;;3.88;2.22;;;18.70;91.60;;;;;;5072774;28;20508;-77
2023/09/04 02:45:20;;;;;;;7.05;2.72;;;18.70;91.70;;;;;;5070716;28;20089;-77
2023/09/04 02:47:46;;;;;;;4.22;2.47;;;18.70;91.70;;;;;;5072273;28;20021;-76
2023/09/04 02:50:12;;;;;;;3.75;2.08;;;18.70;91.70;;;;;;5068224;28;20017;-77
2023/09/04 02:52:37;;;;;;;4.28;2.40;;;18.70;91.70;;;;;;5071879;28;20025;-77
2023/09/04 02:55:04;;;;;;;4.07;2.30;;;18.70;91.70;;;;;;5071911;28;20027;-77
2023/09/04 02:57:31;;;;;;;4.10;2.58;;;18.70;91.70;;;;;;5070992;28;20032;-79
2023/09/04 02:59:58;;;;;;;3.78;2.22;;;18.70;91.70;;;;;;5071852;28;20032;-77
2023/09/04 03:02:24;;;;;;;3.85;2.20;;;18.70;91.70;;;;;;5070512;28;20028;-78
2023/09/04 03:04:56;;;;;;;4.40;2.33;;;18.70;91.70;;;;;;5070688;28;20028;-77
2023/09/04 03:07:26;;;;;;;4.28;2.50;;;18.70;91.80;;;;;;5071986;28;20039;-76
2023/09/04 03:09:56;;;;;;;4.10;2.30;;;18.70;91.70;;;;;;5070786;28;20021;-77
2023/09/04 03:12:23;;;;;;;4.13;2.17;;;18.70;91.70;;;;;;5072079;28;20020;-77
2023/09/04 03:14:54;;;;;;;4.47;2.50;;;18.70;91.80;;;;;;5071676;28;20032;-77
2023/09/04 03:17:20;;;;;;;4.10;2.30;;;18.70;91.70;;;;;;5072031;28;20032;-77
2023/09/04 03:19:45;;;;;;;4.00;2.30;;;18.70;91.70;;;;;;5071897;28;20544;-76
2023/09/04 03:22:11;;;;;;;3.85;2.33;;;18.70;91.70;;;;;;5071959;28;20024;-76
2023/09/04 03:24:36;;;;;;;4.18;2.40;;;18.70;91.70;;;;;;5071647;28;20556;-77
2023/09/04 03:27:02;;;;;;;3.83;2.35;;;18.80;91.70;;;;;;5070452;28;20028;-77
2023/09/04 03:29:27;;;;;;;4.65;2.40;;;18.80;91.60;;;;;;5071927;28;20366;-76
2023/09/04 03:31:53;;;;;;;3.90;2.13;;;18.80;91.60;;;;;;5071836;28;20161;-76
2023/09/04 03:34:19;;;;;;;3.60;2.17;;;18.80;91.60;;;;;;5070354;28;20508;-76
2023/09/04 03:36:48;;;;;;;3.90;2.30;;;18.80;91.60;;;;;;5071701;28;20095;-77
2023/09/04 03:39:13;;;;;;;4.00;2.17;;;18.80;91.60;;;;;;5070370;28;20253;-76
2023/09/04 03:41:39;;;;;;;3.25;2.10;;;18.70;91.60;;;;;;5072040;28;20017;-77
2023/09/04 03:44:06;;;;;;;3.80;2.10;;;18.70;91.60;;;;;;5070152;28;20427;-78
2023/09/04 03:46:31;;;;;;;4.00;2.30;;;18.70;91.70;;;;;;5071444;28;20021;-76
2023/09/04 03:48:57;;;;;;;4.03;2.20;;;18.70;91.70;;;;;;5070302;28;20036;-77
2023/09/04 03:51:22;;;;;;;3.35;2.08;;;18.70;91.70;;;;;;5070334;28;20087;-76
2023/09/04 03:53:48;;;;;;;3.60;2.10;;;18.70;91.70;;;;;;5070197;28;20021;-77
2023/09/04 03:56:13;;;;;;;4.95;2.50;;;18.70;91.70;;;;;;5071807;28;20539;-77
2023/09/04 03:58:39;;;;;;;3.50;2.20;;;18.70;91.70;;;;;;5071572;28;20032;-76
2023/09/04 04:01:04;;;;;;;3.75;2.05;;;18.70;91.70;;;;;;5071873;28;20056;-76
2023/09/04 04:03:30;;;;;;;4.32;2.13;;;18.70;91.70;;;;;;5070144;28;20044;-74
2023/09/04 04:05:55;;;;;;;3.03;1.98;;;18.70;91.70;;;;;;5071394;28;20512;-78
2023/09/04 04:08:21;;;;;;;4.03;2.20;;;18.70;91.70;;;;;;5069860;28;20108;-76
2023/09/04 04:10:46;;;;;;;3.70;2.30;;;18.70;91.70;;;;;;5070209;28;20060;-76
2023/09/04 04:13:12;;;;;;;3.45;2.20;;;18.70;91.70;;;;;;5074047;28;20013;-77
2023/09/04 04:15:41;;;;;;;3.28;2.05;;;18.70;91.70;;;;;;5075006;28;20028;-76
2023/09/04 04:18:09;;;;;;;3.65;2.10;;;18.70;91.70;;;;;;5075184;28;20021;-76
2023/09/04 04:20:35;;;;;;;3.40;2.03;;;18.70;91.70;;;;;;5075210;28;20056;-76
2023/09/04 04:23:00;;;;;;;3.35;2.00;;;18.70;91.70;;;;;;5075257;28;20059;-78
2023/09/04 04:25:26;;;;;;;4.22;2.30;;;18.70;91.70;;;;;;5073701;28;20108;-76
2023/09/04 04:27:51;;;;;;;3.25;2.10;;;18.80;91.60;;;;;;5073804;28;20066;-76
2023/09/04 04:30:17;;;;;;;3.53;2.03;;;18.80;91.60;;;;;;5074974;28;20036;-77
2023/09/04 04:32:42;;;;;;;4.18;2.40;;;18.80;91.60;;;;;;5073848;28;20027;-76
2023/09/04 04:35:08;;;;;;;3.97;2.28;;;18.70;91.60;;;;;;5074765;28;20059;-77
2023/09/04 04:37:33;;;;;;;3.05;2.00;;;18.70;91.50;;;;;;5073522;28;20127;-77
2023/09/04 04:40:00;;;;;;;4.22;2.15;;;18.70;91.60;;;;;;5075067;28;20032;-76
2023/09/04 04:42:26;;;;;;;4.10;2.40;;;18.70;91.60;;;;;;5074755;28;20024;-76
2023/09/04 04:44:54;;;;;;;3.78;2.30;;;18.70;91.60;;;;;;5074395;28;20033;-76
2023/09/04 04:47:20;;;;;;;3.17;2.00;;;18.70;91.60;;;;;;5074526;28;20028;-77
2023/09/04 04:49:45;;;;;;;3.53;2.10;;;18.70;91.60;;;;;;5071889;28;20024;-75
2023/09/04 04:52:11;;;;;;;3.42;1.98;;;18.70;91.90;;;;;;5066407;28;20024;-76
2023/09/04 04:54:36;;;;;;;3.28;2.08;;;18.70;91.60;;;;;;5074200;28;20032;-77
2023/09/04 04:57:02;;;;;;;3.15;2.13;;;18.70;91.60;;;;;;5074474;28;20035;-77
2023/09/04 04:59:28;;;;;;;3.83;2.33;;;18.70;91.60;;;;;;5073246;28;20024;-76
2023/09/04 05:01:56;;;;;;;3.50;2.10;;;18.70;91.60;;;;;;5074821;28;20031;-76
2023/09/04 05:04:21;;;;;;;3.38;2.20;;;18.70;91.60;;;;;;5074100;28;20025;-76
2023/09/04 05:06:47;;;;;;;3.47;2.00;;;18.60;91.60;;;;;;5068487;28;20070;-76
2023/09/04 05:09:13;;;;;;;3.95;2.40;;;18.70;91.60;;;;;;5072757;28;20128;-76
2023/09/04 05:11:39;;;;;;;3.92;2.25;;;18.70;91.60;;;;;;5074248;28;20020;-76
2023/09/04 05:14:04;;;;;;;4.03;2.28;;;18.70;91.60;;;;;;5072745;28;20115;-76
2023/09/04 05:16:30;;;;;;;3.70;2.10;;;18.70;91.60;;;;;;5072910;28;20051;-76
2023/09/04 05:18:55;;;;;;;3.42;2.10;;;18.70;91.60;;;;;;5074093;28;20446;-76
2023/09/04 05:21:21;;;;;;;3.10;2.08;;;18.70;91.50;;;;;;5072779;28;20035;-76
2023/09/04 05:23:47;;;;;;;3.53;2.10;;;18.70;91.50;;;;;;5072731;28;20078;-76
2023/09/04 05:26:13;;;;;;;3.65;2.17;;;18.80;91.50;;;;;;5072770;28;20063;-76
2023/09/04 05:28:38;;;;;;;3.65;2.13;;;18.80;91.50;;;;;;5073802;28;20056;-76
2023/09/04 05:31:04;;;;;;;3.38;2.20;;;18.80;91.40;;;;;;5072676;28;20453;-76
2023/09/04 05:33:30;;;;;;;4.20;2.25;;;18.80;91.60;;;;;;5072496;28;20028;-79
2023/09/04 05:35:56;;;;;;;4.43;2.20;;;18.80;91.30;;;;;;5073990;28;20099;-76
2023/09/04 05:38:22;;;;;;;3.17;2.10;;;18.80;91.30;;;;;;5072410;28;20020;-76
2023/09/04 05:40:49;;;;;;;4.03;2.35;;;18.80;91.30;;;;;;5073896;28;20016;-76
2023/09/04 05:43:14;;;;;;;4.05;2.38;;;18.80;91.30;;;;;;5073572;28;20037;-76
2023/09/04 05:45:40;;;;;;;3.60;2.10;;;18.80;91.20;;;;;;5073162;28;20118;-76
2023/09/04 05:48:06;;;;;;;3.35;2.08;;;18.80;91.20;;;;;;5073400;28;20396;-76
2023/09/04 05:50:32;;;;;;;3.95;2.25;;;18.80;91.20;;;;;;5073408;28;20013;-76
2023/09/04 05:52:57;;;;;;;3.92;2.30;;;18.80;91.20;;;;;;5073521;28;20020;-78
2023/09/04 05:55:23;;;;;;;3.90;2.22;;;18.90;91.30;;;;;;5073144;28;20139;-76
2023/09/04 05:57:48;;;;;;;3.55;2.22;;;18.80;91.20;;;;;;5073373;28;20371;-76
2023/09/04 06:00:14;;;;;;;3.72;2.10;;;18.80;91.20;;;;;;5073407;28;20085;-78
2023/09/04 06:02:39;;;;;;;2.80;1.90;;;18.80;91.20;;;;;;5073245;28;20032;-76
2023/09/04 06:05:05;;;;;;;3.33;1.80;;;18.80;91.20;;;;;;5071811;28;20032;-76
2023/09/04 06:07:32;;;;;;;3.70;2.08;;;18.80;91.10;;;;;;5073070;28;20025;-76
2023/09/04 06:09:57;;;;;;;2.78;1.90;;;18.80;91.10;;;;;;5072001;28;20060;-76
2023/09/04 06:12:23;;;;;;;3.17;1.90;;;18.80;91.10;;;;;;5073004;28;20456;-76
2023/09/04 06:14:48;;;;;;;3.55;1.90;;;18.90;91.10;;;;;;5072869;28;20020;-75
2023/09/04 06:17:14;;;;;;;3.50;2.10;;;18.90;91.10;;;;;;5071828;28;20128;-78
2023/09/04 06:19:39;;;;;;;3.55;2.13;;;18.90;91.10;;;;;;5072954;28;20047;-77
2023/09/04 06:22:05;;;;;;;3.63;2.00;;;18.90;91.00;;;;;;5072818;28;20036;-77
2023/09/04 06:24:32;;;;;;;2.95;1.85;;;19.00;91.00;;;;;;5071512;28;20056;-77
2023/09/04 06:26:57;;;;;;;3.88;2.15;;;19.00;90.90;;;;;;5071382;28;20035;-78
2023/09/04 06:29:23;;;;;;;3.15;1.92;;;19.00;90.80;;;;;;5072647;28;20410;-77
2023/09/04 06:31:48;;;;;;;3.67;2.22;;;19.10;90.70;;;;;;5072687;28;20024;-76
2023/09/04 06:34:14;;;;;;;3.35;1.92;;;19.10;90.70;;;;;;5071177;28;20021;-76
2023/09/04 06:36:39;;;;;;;2.80;1.98;;;19.10;90.70;;;;;;5072430;28;20031;-77
2023/09/04 06:39:06;;;;;;;3.65;2.03;;;19.10;90.70;;;;;;5072630;28;20103;-77
2023/09/04 06:41:32;;;;;;;3.00;1.83;;;19.10;90.60;;;;;;5071199;28;20032;-77
2023/09/04 06:43:58;;;;;;;3.28;2.00;;;19.10;90.60;;;;;;5072381;28;20464;-77
2023/09/04 06:46:23;;;;;;;3.55;2.15;;;19.10;90.60;;;;;;5070895;28;20056;-77
2023/09/04 06:48:49;;;;;;;3.42;1.90;;;19.10;90.60;;;;;;5071254;28;20071;-78
2023/09/04 06:51:16;;;;;;;3.28;2.05;;;19.20;90.60;;;;;;5071266;28;20024;-79
2023/09/04 06:53:41;;;;;;;3.30;1.90;;;19.10;90.60;;;;;;5070751;28;20020;-77
2023/09/04 06:56:07;;;;;;;3.22;1.80;;;19.10;90.60;;;;;;5072397;28;20498;-77
2023/09/04 06:58:32;;;;;;;3.65;2.00;;;19.20;90.60;;;;;;5072222;28;20029;-76
2023/09/04 07:01:04;;;;;;;2.90;1.88;;;19.20;90.50;;;;;;5071156;28;20099;-76
2023/09/04 07:03:30;;;;;;;2.90;1.98;;;19.20;90.50;;;;;;5071996;28;20024;-79
2023/09/04 07:05:56;;;;;;;3.33;2.00;;;19.20;90.50;;;;;;5070729;28;20039;-76
2023/09/04 07:08:22;;;;;;;3.38;2.10;;;19.20;90.40;;;;;;5071874;28;20024;-76
2023/09/04 07:10:48;;;;;;;3.15;2.10;;;19.20;90.40;;;;;;5070957;28;20020;-77
2023/09/04 07:13:15;;;;;;;3.85;2.22;;;19.20;90.40;;;;;;5072022;28;20493;-77
2023/09/04 07:15:40;;;;;;;3.28;2.03;;;19.30;90.40;;;;;;5071963;28;20028;-76
2023/09/04 07:18:08;;;;;;;3.20;1.95;;;19.30;90.40;;;;;;5070754;28;20025;-77
2023/09/04 07:20:33;;;;;;;3.70;2.30;;;19.30;90.30;;;;;;5070606;28;20025;-77
2023/09/04 07:22:59;;;;;;;3.25;2.05;;;19.30;90.30;;;;;;5071948;28;20507;-76
2023/09/04 07:25:24;;;;;;;3.63;2.40;;;19.40;90.20;;;;;;5071652;28;20497;-78
2023/09/04 07:27:50;;;;;;;4.25;2.30;;;19.50;90.20;;;;;;5070491;28;20408;-76
2023/09/04 07:30:15;;;;;;;3.95;2.30;;;19.50;90.10;;;;;;5070540;28;20056;-76
2023/09/04 07:32:41;;;;;;;4.47;2.60;;;19.50;90.00;;;;;;5071714;28;20493;-78
2023/09/04 07:35:07;;;;;;;4.93;2.53;;;19.50;89.80;;;;;;5071577;28;20020;-76
2023/09/04 07:37:32;;;;;;;4.20;2.60;;;19.60;89.60;;;;;;5071596;28;20082;-76
2023/09/04 07:39:58;;;;;;;5.20;2.92;;;19.60;89.50;;;;;;5071878;28;20071;-76
2023/09/04 07:42:24;;;;;;;3.95;2.53;;;19.60;89.50;;;;;;5071601;28;20020;-76
2023/09/04 07:44:50;;;;;;;4.60;3.00;;;19.60;89.50;;;;;;5072442;28;20031;-76
2023/09/04 07:47:16;;;;;;;4.50;2.80;;;19.60;89.50;;;;;;5071433;28;20025;-78
2023/09/04 07:49:42;;;;;;;4.97;2.78;;;19.60;89.40;;;;;;5075848;28;20021;-78
2023/09/04 07:52:07;;;;;;;4.60;2.70;;;19.70;89.50;;;;;;5075980;28;20048;-77
2023/09/04 07:54:33;;;;;;;4.43;2.80;;;19.70;89.50;;;;;;5075437;28;20408;-76
2023/09/04 07:57:04;;;;;;;4.20;2.88;;;19.70;89.50;;;;;;5075764;28;20032;-76
2023/09/04 07:59:30;;;;;;;5.40;3.15;;;19.70;89.40;;;;;;5075700;28;20051;-76
2023/09/04 08:01:55;;;;;;;5.05;3.10;;;19.70;89.40;;;;;;5075965;28;20056;-77
2023/09/04 08:04:21;;;;;;;4.75;3.20;;;19.70;89.40;;;;;;5075135;28;20043;-76
2023/09/04 08:06:46;;;;;;;4.90;3.10;;;19.70;89.30;;;;;;5075715;28;20100;-76
2023/09/04 08:09:12;;;;;;;4.10;2.78;;;19.70;89.30;;;;;;5075422;28;20032;-76
2023/09/04 08:11:37;;;;;;;4.55;2.90;;;19.80;89.50;;;;;;5074091;28;20024;-76
2023/09/04 08:14:03;;;;;;;4.70;2.70;;;19.80;89.40;;;;;;5073955;28;20370;-78
2023/09/04 08:16:29;;;;;;;4.22;2.75;;;19.80;89.30;;;;;;5074133;28;20179;-76
2023/09/04 08:18:54;;;;;;;4.22;2.70;;;19.80;89.30;;;;;;5073949;28;20419;-76
2023/09/04 08:21:20;;;;;;;5.07;3.00;;;19.90;89.30;;;;;;5075238;28;20108;-76
2023/09/04 08:23:45;;;;;;;4.97;3.10;;;19.90;89.10;;;;;;5075047;28;20020;-77
2023/09/04 08:26:13;;;;;;;4.03;2.50;;;19.90;89.00;;;;;;5074056;28;20035;-76
2023/09/04 08:28:39;;;;;;;4.30;2.70;;;20.00;88.90;;;;;;5073557;28;20050;-76
2023/09/04 08:31:05;;;;;;;4.57;2.97;;;20.00;88.80;;;;;;5075227;28;20028;-77
2023/09/04 08:33:30;;;;;;;5.07;2.92;;;20.00;88.60;;;;;;5074737;28;20021;-74
2023/09/04 08:35:56;;;;;;;4.70;3.00;;;20.00;88.60;;;;;;5074919;28;20021;-78
2023/09/04 08:38:21;;;;;;;3.80;2.50;;;20.00;88.50;;;;;;5074820;28;20025;-76
2023/09/04 08:40:47;;;;;;;4.35;2.90;;;20.00;88.50;;;;;;5075020;28;20439;-76
2023/09/04 08:43:15;;;;;;;4.78;2.78;;;20.10;88.50;;;;;;5073709;28;20032;-76
2023/09/04 08:45:42;;;;;;;4.00;2.53;;;20.10;88.50;;;;;;5074057;28;20036;-77
2023/09/04 08:48:08;;;;;;;4.10;2.67;;;20.10;88.60;;;;;;5074533;28;20033;-76
2023/09/04 08:50:36;;;;;;;4.03;2.60;;;20.10;88.50;;;;;;5074634;28;20070;-76
2023/09/04 08:53:02;;;;;;;4.50;2.90;;;20.10;88.60;;;;;;5073454;28;20485;-77
2023/09/04 08:55:28;;;;;;;4.20;2.50;;;20.10;88.60;;;;;;5073308;28;20035;-76
2023/09/04 08:57:54;;;;;;;4.25;2.60;;;20.10;88.60;;;;;;5074512;28;20036;-76
2023/09/04 09:00:20;;;;;;;3.83;2.65;;;20.10;88.50;;;;;;5074421;28;20033;-75
2023/09/04 09:02:45;;;;;;;3.72;2.38;;;20.10;88.50;;;;;;5074645;28;20020;-76
2023/09/04 09:05:16;;;;;;;3.78;2.40;;;20.10;88.50;;;;;;5074047;28;20439;-76
2023/09/04 09:07:43;;;;;;;4.13;2.50;;;20.10;88.50;;;;;;5074334;28;20032;-76
2023/09/04 09:10:13;;;;;;;3.53;2.38;;;20.20;88.60;;;;;;5074400;28;20103;-76
2023/09/04 09:12:38;;;;;;;4.22;2.47;;;20.10;88.60;;;;;;5074144;28;20431;-77
2023/09/04 09:15:04;;;;;;;4.00;2.47;;;20.10;88.60;;;;;;5074163;28;20020;-76
2023/09/04 09:17:30;;;;;;;3.45;2.28;;;20.20;88.70;;;;;;5072797;28;20036;-76
2023/09/04 09:19:55;;;;;;;3.45;2.20;;;20.20;88.80;;;;;;5074198;28;20029;-76
2023/09/04 09:22:22;;;;;;;3.72;2.30;;;20.20;88.80;;;;;;5074111;28;20511;-76
2023/09/04 09:24:59;;;;;;;3.33;2.20;;;20.20;88.80;;;;;;5073908;28;20122;-77
2023/09/04 09:27:30;;;;;;;3.38;2.20;;;20.20;88.70;;;;;;5073784;28;20374;-77
2023/09/04 09:29:59;;;;;;;4.00;2.45;;;20.20;88.50;;;;;;5072765;28;20063;-76
2023/09/04 09:32:33;;;;;;;3.08;2.13;;;20.30;89.00;;;;;;5072494;28;20105;-77
2023/09/04 09:35:00;;;;;;;4.05;2.30;;;20.30;88.50;;;;;;5074046;28;20071;-76
2023/09/04 09:37:29;;;;;;;3.80;2.22;;;20.30;88.50;;;;;;5072624;28;20020;-78
2023/09/04 09:39:55;;;;;;;3.55;2.13;;;20.30;88.50;;;;;;5072701;28;20031;-76
2023/09/04 09:42:21;;;;;;;3.70;2.25;;;20.30;88.50;;;;;;5073638;28;20024;-76
2023/09/04 09:44:47;;;;;;;3.20;2.03;;;20.30;88.50;;;;;;5073226;28;20101;-76
2023/09/04 09:47:14;;;;;;;3.67;2.20;;;20.30;88.60;;;;;;5073403;28;20028;-77
2023/09/04 09:49:40;;;;;;;4.22;2.10;;;20.30;88.50;;;;;;5072298;28;20060;-76
2023/09/04 09:52:08;;;;;;;4.32;2.22;;;20.30;88.40;;;;;;5073535;28;20021;-76
2023/09/04 09:54:35;;;;;;;5.47;2.28;;;20.30;87.90;;;;;;5073387;28;20017;-76
2023/09/04 09:57:03;;;;;;;5.28;2.17;;;20.30;87.90;;;;;;5073370;28;20392;-77
2023/09/04 09:59:30;;;;;;;5.18;2.38;;;20.30;87.90;;;;;;5073370;28;20028;-78
2023/09/04 10:01:56;;;;;;;5.03;2.35;;;20.30;88.00;;;;;;5073254;28;20485;-78
2023/09/04 10:04:24;;;;;;;4.28;2.20;;;20.30;88.10;;;;;;5073052;28;20051;-78
2023/09/04 10:06:50;;;;;;;5.53;2.20;;;20.30;88.10;;;;;;5073167;28;20029;-78
2023/09/04 10:09:21;;;;;;;4.40;2.00;;;20.30;88.20;;;;;;5072977;28;20115;-77
2023/09/04 10:11:52;;;;;;;4.65;2.10;;;20.30;88.30;;;;;;5072775;28;20029;-76
2023/09/04 10:14:27;;;;;;;5.53;2.30;;;20.30;88.30;;;;;;5073031;28;20021;-77
2023/09/04 10:16:58;;;;;;;4.82;2.22;;;20.30;88.30;;;;;;5073035;28;20039;-76
2023/09/04 10:19:30;;;;;;;2.58;1.60;;;20.40;88.20;;;;;;5071898;28;20044;-78
2023/09/04 10:22:03;;;;;;;4.40;2.05;;;20.40;88.10;;;;;;5071760;28;20028;-77
2023/09/04 10:24:55;;;;;;;5.85;2.03;;;20.40;88.10;;;;;;5072699;28;20101;-78
2023/09/04 10:27:25;;;;;;;4.80;2.40;;;20.50;88.00;;;;;;5072340;28;20501;-78
2023/09/04 10:29:56;;;;;;;4.43;2.15;;;20.50;88.00;;;;;;5072842;28;20044;-77
2023/09/04 10:32:24;;;;;;;6.75;2.10;;;20.40;88.00;;;;;;5072869;28;20050;-77
2023/09/04 10:34:49;;;;;;;4.00;2.00;;;20.40;88.10;;;;;;5072399;28;20447;-77
2023/09/04 10:37:16;;;;;;;4.32;2.00;;;20.40;88.20;;;;;;5072727;28;20024;-77
2023/09/04 10:39:42;;;;;;;4.20;1.80;;;20.40;88.20;;;;;;5072437;28;20028;-77
2023/09/04 10:42:08;;;;;;;5.53;2.30;;;20.40;88.40;;;;;;5072702;28;20031;-78
2023/09/04 10:44:51;;;;;;;3.20;1.73;;;20.40;88.50;;;;;;5071833;28;20034;-76
2023/09/04 10:47:18;;;;;;;3.80;2.20;;;20.40;88.60;;;;;;5071041;28;20024;-76
2023/09/04 10:49:44;;;;;;;3.53;2.00;;;20.30;88.60;;;;;;5071116;28;20025;-77
2023/09/04 10:52:11;;;;;;;4.78;2.10;;;20.40;88.80;;;;;;5071291;28;20033;-77
2023/09/04 10:54:37;;;;;;;3.83;1.92;;;20.30;88.80;;;;;;5070855;28;20024;-77
2023/09/04 10:57:05;;;;;;;2.88;1.83;;;20.30;88.90;;;;;;5070972;28;20065;-76
2023/09/04 10:59:54;;;;;;;3.85;2.13;;;20.30;88.90;;;;;;5070846;28;20107;-77
2023/09/04 11:02:27;;;;;;;4.40;2.15;;;20.30;89.00;;;;;;5072118;28;20362;-76
2023/09/04 11:04:53;;;;;;;2.97;1.77;;;20.30;89.00;;;;;;5072157;28;20565;-76
2023/09/04 11:07:23;;;;;;;2.85;1.83;;;20.30;89.10;;;;;;5070677;28;20021;-77
2023/09/04 11:09:52;;;;;;;2.65;1.70;;;20.30;89.10;;;;;;5071179;28;20083;-77
2023/09/04 11:12:22;;;;;;;3.67;2.10;;;20.30;89.10;;;;;;5072097;28;20033;-78
2023/09/04 11:14:51;;;;;;;3.50;1.90;;;20.30;89.10;;;;;;5071821;28;20496;-77
2023/09/04 11:17:17;;;;;;;4.20;1.95;;;20.30;89.00;;;;;;5070833;28;20021;-77
2023/09/04 11:19:43;;;;;;;3.33;1.80;;;20.30;89.00;;;;;;5070683;28;20400;-76
2023/09/04 11:22:15;;;;;;;2.92;1.67;;;20.30;88.90;;;;;;5070082;28;20070;-76
2023/09/04 11:24:41;;;;;;;2.95;1.70;;;20.30;88.90;;;;;;5071853;28;20398;-76
2023/09/04 11:27:06;;;;;;;2.88;1.63;;;20.40;88.90;;;;;;5070662;28;20024;-76
2023/09/04 11:29:33;;;;;;;4.38;2.33;;;20.30;88.90;;;;;;5070564;28;20012;-76
2023/09/04 11:31:58;;;;;;;2.88;1.55;;;20.30;89.00;;;;;;5072164;28;20070;-77
2023/09/04 11:34:25;;;;;;;2.97;1.73;;;20.30;89.00;;;;;;5070368;28;20427;-76
2023/09/04 11:36:51;;;;;;;2.25;1.60;;;20.30;89.10;;;;;;5071979;28;20032;-76
2023/09/04 11:39:16;;;;;;;3.30;1.75;;;20.30;89.20;;;;;;5070566;28;20511;-76
2023/09/04 11:41:42;;;;;;;3.08;1.70;;;20.30;89.30;;;;;;5071905;28;20056;-76
2023/09/04 11:44:08;;;;;;;3.03;1.90;;;20.30;89.30;;;;;;5071562;28;20033;-77
2023/09/04 11:46:34;;;;;;;3.42;1.77;;;20.30;89.40;;;;;;5070175;28;20021;-76
2023/09/04 11:49:03;;;;;;;2.38;1.67;;;20.30;89.50;;;;;;5071732;28;20488;-76
2023/09/04 11:51:30;;;;;;;3.50;1.63;;;20.20;89.50;;;;;;5071606;28;20370;-78
2023/09/04 11:53:56;;;;;;;2.42;1.63;;;20.20;89.50;;;;;;5070224;28;20024;-76
2023/09/04 11:56:22;;;;;;;2.92;1.65;;;20.20;89.60;;;;;;5070405;28;20016;-76
2023/09/04 11:58:47;;;;;;;2.83;1.73;;;20.20;89.60;;;;;;5071561;28;20052;-77
2023/09/04 12:01:13;;;;;;;2.33;1.65;;;20.20;89.60;;;;;;5070429;28;20400;-77
2023/09/04 12:03:38;;;;;;;3.97;1.88;;;20.20;89.60;;;;;;5070037;28;20115;-77
2023/09/04 12:06:04;;;;;;;2.20;1.52;;;20.20;89.60;;;;;;5071512;28;20095;-76
2023/09/04 12:08:30;;;;;;;2.85;1.70;;;20.20;89.60;;;;;;5071276;28;20052;-77
2023/09/04 12:10:55;;;;;;;3.88;1.70;;;20.20;89.70;;;;;;5071502;28;20033;-76
2023/09/04 12:13:22;;;;;;;3.13;1.83;;;20.20;89.60;;;;;;5070161;28;20546;-77
2023/09/04 12:15:48;;;;;;;2.15;1.58;;;20.20;89.50;;;;;;5071432;28;20049;-76
2023/09/04 12:18:15;;;;;;;2.90;1.80;;;20.20;89.50;;;;;;5071384;28;20465;-76
2023/09/04 12:20:42;;;;;;;2.88;1.73;;;20.30;89.40;;;;;;5070165;28;20034;-78
2023/09/04 12:23:08;;;;;;;2.50;1.63;;;20.20;89.30;;;;;;5071669;28;20040;-76
2023/09/04 12:25:44;;;;;;;2.65;1.70;;;20.30;89.30;;;;;;5069892;28;20817;-76
2023/09/04 12:28:12;;;;;;;3.28;1.80;;;20.20;89.30;;;;;;5071251;28;20031;-76
2023/09/04 12:30:44;;;;;;;1.90;1.45;;;20.20;89.30;;;;;;5071277;28;20017;-76
2023/09/04 12:33:14;;;;;;;3.17;1.83;;;20.20;89.50;;;;;;5070959;28;20055;-76
2023/09/04 12:35:43;;;;;;;2.92;1.60;;;20.20;89.60;;;;;;5074776;28;20023;-76
2023/09/04 12:38:10;;;;;;;3.10;1.50;;;20.20;89.70;;;;;;5074962;28;20035;-78
2023/09/04 12:40:36;;;;;;;3.00;1.70;;;20.10;89.70;;;;;;5074776;28;20035;-77
2023/09/04 12:43:02;;;;;;;2.97;1.70;;;20.20;89.80;;;;;;5073602;28;20029;-76
2023/09/04 12:45:28;;;;;;;2.30;1.42;;;20.10;89.80;;;;;;5074316;28;20116;-76